Time;durP1;ratioP1;P1;durP2;ratioP2;P2;SDS_P1;SDS_P2;PMS_P1;PMS_P2;Temp;Humidity;BMP_temperature;BMP_pressure;BME280_temperature;BME280_humidity;BME280_pressure;Samples;Min_cycle;Max_cycle;Signal;HPM_P1;HPM_P2
2022/11/08 00:01:37;;;;;;;;;;;;;;;;;;4973209;28;19921;-80
2022/11/08 00:04:02;;;;;;;;;;;;;;;;;;4943083;28;19915;-81
2022/11/08 00:14:40;;;;;;;;;;;;;;;;;;4983510;28;19914;-79
2022/11/08 00:17:06;;;;;;;;;;;;;;;;;;4964856;28;19918;-79
2022/11/08 00:19:31;;;;;;;;;;;;;;;;;;4977988;28;19925;-80
2022/11/08 00:21:56;;;;;;;;;;;;;;;;;;4964458;28;19922;-80
2022/11/08 00:24:22;;;;;;;;;;;;;;;;;;4975578;28;19962;-80
2022/11/08 00:26:47;;;;;;;;;;;;;;;;;;4969179;28;19981;-81
2022/11/08 00:29:13;;;;;;;;;;;;;;;;;;4967762;28;19921;-81
2022/11/08 00:31:38;;;;;;;;;;;;;;;;;;4957145;28;19969;-80
2022/11/08 00:34:03;;;;;;;;;;;;;;;;;;4946007;28;19914;-81
2022/11/08 00:36:29;;;;;;;;;;;;;;;;;;4956685;28;19953;-80
2022/11/08 00:38:57;;;;;;;;;;;;;;;;;;4968402;28;20399;-80
2022/11/08 00:41:22;;;;;;;;;;;;;;;;;;4944635;28;19919;-80
2022/11/08 00:43:48;;;;;;;;;;;;;;;;;;4954437;28;19918;-80
2022/11/08 00:46:13;;;;;;;;;;;;;;;;;;4942432;28;20399;-82
2022/11/08 00:48:38;;;;;;;;;;;;;;;;;;4951578;29;19915;-80
2022/11/08 00:51:04;;;;;;;;;;;;;;;;;;4940892;28;19922;-80
2022/11/08 00:53:29;;;;;;;;;;;;;;;;;;4965562;28;19915;-79
2022/11/08 00:55:54;;;;;;;;;;;;;;;;;;4960668;28;19998;-80
2022/11/08 00:58:20;;;;;;;;;;;;;;;;;;4971565;28;20413;-79
2022/11/08 01:00:45;;;;;;;;;;;;;;;;;;4959506;28;19921;-80
2022/11/08 01:03:20;;;;;;;;;;;;;;;;;;4967373;28;20448;-80
2022/11/08 01:05:45;;;;;;;;;;;;;;;;;;4967485;28;19918;-80
2022/11/08 01:08:10;;;;;;;;;;;;;;;;;;4942750;29;19915;-80
2022/11/08 01:10:36;;;;;;;;;;;;;;;;;;4971333;28;20026;-80
2022/11/08 01:13:01;;;;;;;;;;;;;;;;;;4961131;28;19921;-80
2022/11/08 01:15:27;;;;;;;;;;;;;;;;;;4965541;28;19915;-80
2022/11/08 01:17:52;;;;;;;;;;;;;;;;;;4967627;28;19921;-80
2022/11/08 01:20:17;;;;;;;;;;;;;;;;;;4957904;28;19957;-80
2022/11/08 01:22:43;;;;;;;;;;;;;;;;;;4970073;28;19918;-80
2022/11/08 01:25:08;;;;;;;;;;;;;;;;;;4930250;28;19914;-80
2022/11/08 01:27:33;;;;;;;;;;;;;;;;;;4965262;28;19962;-80
2022/11/08 01:29:59;;;;;;;;;;;;;;;;;;4938188;28;19914;-80
2022/11/08 01:32:24;;;;;;;;;;;;;;;;;;4959244;28;19914;-80
2022/11/08 01:34:50;;;;;;;;;;;;;;;;;;4961248;28;19941;-80
2022/11/08 01:37:15;;;;;;;;;;;;;;;;;;4950640;29;19925;-80
2022/11/08 01:39:40;;;;;;;;;;;;;;;;;;4950502;28;20337;-80
2022/11/08 01:42:06;;;;;;;;;;;;;;;;;;4961489;28;19919;-80
2022/11/08 01:44:31;;;;;;;;;;;;;;;;;;4957563;28;19960;-80
2022/11/08 01:46:57;;;;;;;;;;;;;;;;;;4958801;28;20378;-80
2022/11/08 01:49:22;;;;;;;;;;;;;;;;;;4965915;28;19965;-80
2022/11/08 01:51:47;;;;;;;;;;;;;;;;;;4935939;28;19915;-80
2022/11/08 01:54:13;;;;;;;;;;;;;;;;;;4960059;28;20413;-80
2022/11/08 01:56:38;;;;;;;;;;;;;;;;;;4946564;28;19914;-80
2022/11/08 01:59:04;;;;;;;;;;;;;;;;;;4941582;29;19914;-80
2022/11/08 02:01:29;;;;;;;;;;;;;;;;;;4954459;28;19914;-80
2022/11/08 02:03:54;;;;;;;;;;;;;;;;;;4966998;28;19914;-80
2022/11/08 02:06:20;;;;;;;;;;;;;;;;;;4977714;28;19918;-80
2022/11/08 02:08:45;;;;;;;;;;;;;;;;;;4949599;28;19914;-80
2022/11/08 02:11:10;;;;;;;;;;;;;;;;;;4955955;28;19954;-79
2022/11/08 02:13:36;;;;;;;;;;;;;;;;;;4952283;28;20397;-80
2022/11/08 02:16:01;;;;;;;;;;;;;;;;;;4962355;28;20394;-80
2022/11/08 02:18:27;;;;;;;;;;;;;;;;;;4974678;28;19937;-80
2022/11/08 02:20:52;;;;;;;;;;;;;;;;;;4951897;28;19918;-80
2022/11/08 02:23:17;;;;;;;;;;;;;;;;;;4959901;28;19915;-80
2022/11/08 02:25:43;;;;;;;;;;;;;;;;;;4965066;29;19911;-79
2022/11/08 02:28:08;;;;;;;;;;;;;;;;;;4978743;28;19948;-79
2022/11/08 02:30:34;;;;;;;;;;;;;;;;;;4948834;28;19938;-79
2022/11/08 02:32:59;;;;;;;;;;;;;;;;;;4949412;28;19914;-80
2022/11/08 02:35:24;;;;;;;;;;;;;;;;;;4956663;29;19915;-80
2022/11/08 02:37:50;;;;;;;;;;;;;;;;;;4973647;28;19914;-79
2022/11/08 02:40:15;;;;;;;;;;;;;;;;;;4946216;29;19962;-79
2022/11/08 02:42:40;;;;;;;;;;;;;;;;;;4975244;28;19918;-79
2022/11/08 02:45:06;;;;;;;;;;;;;;;;;;4966279;28;20007;-79
2022/11/08 02:47:31;;;;;;;;;;;;;;;;;;4952074;28;19923;-79
2022/11/08 02:49:56;;;;;;;;;;;;;;;;;;4955728;28;19921;-79
2022/11/08 02:52:22;;;;;;;;;;;;;;;;;;4959036;28;20401;-80
2022/11/08 02:54:47;;;;;;;;;;;;;;;;;;4962073;28;20341;-81
2022/11/08 02:57:13;;;;;;;;;;;;;;;;;;4952114;28;19953;-80
2022/11/08 02:59:38;;;;;;;;;;;;;;;;;;4969047;28;19914;-80
2022/11/08 03:02:03;;;;;;;;;;;;;;;;;;4964393;28;20383;-80
2022/11/08 03:04:29;;;;;;;;;;;;;;;;;;4958138;28;20005;-80
2022/11/08 03:06:54;;;;;;;;;;;;;;;;;;4958318;29;19972;-81
2022/11/08 03:09:19;;;;;;;;;;;;;;;;;;4954266;28;20377;-81
2022/11/08 03:11:45;;;;;;;;;;;;;;;;;;4969460;28;20266;-81
2022/11/08 03:14:10;;;;;;;;;;;;;;;;;;4959500;28;19957;-81
2022/11/08 03:16:35;;;;;;;;;;;;;;;;;;4961893;28;19915;-80
2022/11/08 03:19:01;;;;;;;;;;;;;;;;;;4970720;28;20382;-80
2022/11/08 03:21:26;;;;;;;;;;;;;;;;;;4966975;28;19973;-80
2022/11/08 03:23:51;;;;;;;;;;;;;;;;;;4931686;29;19918;-80
2022/11/08 03:26:17;;;;;;;;;;;;;;;;;;4958696;28;19953;-80
2022/11/08 03:28:42;;;;;;;;;;;;;;;;;;4957261;28;19922;-80
2022/11/08 03:31:07;;;;;;;;;;;;;;;;;;4965925;28;20301;-80
2022/11/08 03:33:33;;;;;;;;;;;;;;;;;;4966577;28;19914;-80
2022/11/08 03:35:58;;;;;;;;;;;;;;;;;;4953321;28;20349;-81
2022/11/08 03:38:24;;;;;;;;;;;;;;;;;;4943042;28;20346;-82
2022/11/08 03:40:49;;;;;;;;;;;;;;;;;;4971997;28;19997;-81
2022/11/08 03:43:15;;;;;;;;;;;;;;;;;;5008083;23;19934;-90
2022/11/08 03:45:40;;;;;;;;;;;;;;;;;;5015748;28;19924;-90
2022/11/08 03:48:05;;;;;;;;;;;;;;;;;;5015942;28;19993;-91
2022/11/08 03:50:31;;;;;;;;;;;;;;;;;;5015419;28;19913;-90
2022/11/08 03:52:56;;;;;;;;;;;;;;;;;;5003398;28;19968;-90
2022/11/08 03:55:22;;;;;;;;;;;;;;;;;;4998201;28;20328;-91
2022/11/08 03:57:47;;;;;;;;;;;;;;;;;;4997892;28;20309;-90
2022/11/08 04:00:14;;;;;;;;;;;;;;;;;;4998409;28;19921;-91
2022/11/08 04:02:39;;;;;;;;;;;;;;;;;;4996270;28;20029;-90
2022/11/08 04:05:04;;;;;;;;;;;;;;;;;;4996998;28;19918;-90
2022/11/08 04:07:30;;;;;;;;;;;;;;;;;;4979418;28;19913;-90
2022/11/08 04:09:55;;;;;;;;;;;;;;;;;;4978836;28;20329;-90
2022/11/08 04:15:14;;;;;;;;;;;;;;;;;;4978869;28;19925;-91
2022/11/08 04:23:08;;;;;;;;;;;;;;;;;;4978714;28;19914;-90
2022/11/08 04:25:34;;;;;;;;;;;;;;;;;;4979543;28;20278;-89
2022/11/08 04:27:59;;;;;;;;;;;;;;;;;;4979511;28;20357;-91
2022/11/08 04:30:25;;;;;;;;;;;;;;;;;;4964021;28;19965;-89
2022/11/08 04:32:51;;;;;;;;;;;;;;;;;;4963062;28;19920;-89
2022/11/08 04:35:16;;;;;;;;;;;;;;;;;;4963161;28;19914;-89
2022/11/08 04:37:42;;;;;;;;;;;;;;;;;;4980614;28;20416;-90
2022/11/08 04:40:07;;;;;;;;;;;;;;;;;;4981871;28;20298;-89
2022/11/08 04:42:32;;;;;;;;;;;;;;;;;;4964671;28;20416;-90
2022/11/08 04:44:58;;;;;;;;;;;;;;;;;;4983471;28;19914;-89
2022/11/08 04:47:23;;;;;;;;;;;;;;;;;;4967921;28;20297;-89
2022/11/08 04:49:49;;;;;;;;;;;;;;;;;;4985414;28;20242;-90
2022/11/08 04:52:14;;;;;;;;;;;;;;;;;;4970649;28;19976;-90
2022/11/08 04:54:43;;;;;;;;;;;;;;;;;;4969487;28;19926;-89
2022/11/08 04:57:09;;;;;;;;;;;;;;;;;;5002900;28;19914;-90
2022/11/08 04:59:34;;;;;;;;;;;;;;;;;;5005246;28;20291;-91
2022/11/08 05:02:00;;;;;;;;;;;;;;;;;;4989555;28;19914;-91
2022/11/08 05:04:25;;;;;;;;;;;;;;;;;;5008039;28;19965;-90
2022/11/08 05:06:51;;;;;;;;;;;;;;;;;;4993266;28;20301;-89
2022/11/08 05:09:16;;;;;;;;;;;;;;;;;;5006996;28;19918;-89
2022/11/08 05:11:42;;;;;;;;;;;;;;;;;;5007547;28;19914;-89
2022/11/08 05:14:08;;;;;;;;;;;;;;;;;;5005635;28;19914;-90
2022/11/08 05:16:33;;;;;;;;;;;;;;;;;;4991036;28;20004;-90
2022/11/08 05:18:59;;;;;;;;;;;;;;;;;;4990203;28;19917;-89
2022/11/08 05:24:09;;;;;;;;;;;;;;;;;;4989939;28;19953;-90
2022/11/08 05:26:35;;;;;;;;;;;;;;;;;;4971002;28;20340;-90
2022/11/08 05:29:00;;;;;;;;;;;;;;;;;;4965647;28;19964;-90
2022/11/08 05:31:26;;;;;;;;;;;;;;;;;;5003359;28;19956;-90
2022/11/08 05:33:52;;;;;;;;;;;;;;;;;;5007527;28;19989;-90
2022/11/08 05:36:17;;;;;;;;;;;;;;;;;;4998751;28;19920;-91
2022/11/08 05:38:43;;;;;;;;;;;;;;;;;;4997542;28;19964;-90
2022/11/08 05:41:09;;;;;;;;;;;;;;;;;;4980261;28;19913;-91
2022/11/08 05:43:34;;;;;;;;;;;;;;;;;;4998276;28;20279;-91
2022/11/08 05:46:00;;;;;;;;;;;;;;;;;;4999384;28;19918;-91
2022/11/08 05:48:25;;;;;;;;;;;;;;;;;;4998502;28;19918;-89
2022/11/08 05:50:51;;;;;;;;;;;;;;;;;;4984138;28;19914;-92
2022/11/08 05:53:16;;;;;;;;;;;;;;;;;;4981963;28;20012;-91
2022/11/08 05:55:42;;;;;;;;;;;;;;;;;;4968945;28;19914;-92
2022/11/08 05:58:07;;;;;;;;;;;;;;;;;;4971583;28;19921;-92
2022/11/08 06:00:33;;;;;;;;;;;;;;;;;;4989860;28;19914;-92
2022/11/08 06:02:58;;;;;;;;;;;;;;;;;;4985971;28;20278;-92
2022/11/08 06:05:24;;;;;;;;;;;;;;;;;;4965665;28;19914;-92
2022/11/08 06:07:49;;;;;;;;;;;;;;;;;;4971687;28;19918;-91
2022/11/08 06:10:15;;;;;;;;;;;;;;;;;;4991342;28;19922;-91
2022/11/08 06:12:40;;;;;;;;;;;;;;;;;;4988811;28;19969;-91
2022/11/08 06:15:06;;;;;;;;;;;;;;;;;;5006874;28;19922;-91
2022/11/08 06:17:32;;;;;;;;;;;;;;;;;;4993069;28;19914;-91
2022/11/08 06:19:58;;;;;;;;;;;;;;;;;;4989663;28;19913;-92
2022/11/08 06:22:23;;;;;;;;;;;;;;;;;;4975103;28;19914;-92
2022/11/08 06:24:48;;;;;;;;;;;;;;;;;;4976479;28;19913;-92
2022/11/08 06:27:15;;;;;;;;;;;;;;;;;;4985964;28;20023;-93
2022/11/08 06:29:41;;;;;;;;;;;;;;;;;;4999950;28;19925;-93
2022/11/08 06:32:07;;;;;;;;;;;;;;;;;;4984482;28;19936;-92
2022/11/08 06:34:32;;;;;;;;;;;;;;;;;;5000942;28;19954;-92
2022/11/08 06:36:59;;;;;;;;;;;;;;;;;;4999057;28;19985;-92
2022/11/08 06:39:25;;;;;;;;;;;;;;;;;;4968291;28;19937;-92
2022/11/08 06:41:50;;;;;;;;;;;;;;;;;;5005847;28;20020;-91
2022/11/08 06:44:16;;;;;;;;;;;;;;;;;;4991346;28;19925;-92
2022/11/08 06:46:41;;;;;;;;;;;;;;;;;;4959724;28;19983;-91
2022/11/08 06:49:07;;;;;;;;;;;;;;;;;;4972754;28;19957;-92
2022/11/08 06:51:33;;;;;;;;;;;;;;;;;;4970168;28;19914;-91
2022/11/08 06:53:59;;;;;;;;;;;;;;;;;;4969198;28;19914;-91
2022/11/08 06:56:24;;;;;;;;;;;;;;;;;;5003915;28;19914;-92
2022/11/08 06:58:51;;;;;;;;;;;;;;;;;;4986666;28;20437;-92
2022/11/08 07:01:17;;;;;;;;;;;;;;;;;;5002470;28;19960;-92
2022/11/08 07:03:43;;;;;;;;;;;;;;;;;;5006624;28;19920;-92
2022/11/08 07:06:09;;;;;;;;;;;;;;;;;;5006330;28;19918;-93
2022/11/08 07:08:34;;;;;;;;;;;;;;;;;;5006163;28;19914;-92
2022/11/08 07:11:00;;;;;;;;;;;;;;;;;;4987547;28;19910;-91
2022/11/08 07:13:26;;;;;;;;;;;;;;;;;;4970777;28;19921;-91
2022/11/08 07:15:51;;;;;;;;;;;;;;;;;;4983499;28;19921;-92
2022/11/08 07:18:16;;;;;;;;;;;;;;;;;;4984869;28;19993;-91
2022/11/08 07:20:42;;;;;;;;;;;;;;;;;;4971775;28;19921;-93
2022/11/08 07:23:07;;;;;;;;;;;;;;;;;;5011417;28;19948;-91
2022/11/08 07:25:33;;;;;;;;;;;;;;;;;;5008247;28;19982;-91
2022/11/08 07:27:59;;;;;;;;;;;;;;;;;;5014445;28;19925;-92
2022/11/08 07:30:24;;;;;;;;;;;;;;;;;;4995381;28;20040;-91
2022/11/08 07:32:50;;;;;;;;;;;;;;;;;;4994476;28;19910;-91
2022/11/08 07:35:16;;;;;;;;;;;;;;;;;;4976453;28;19925;-92
2022/11/08 07:37:41;;;;;;;;;;;;;;;;;;4968151;28;19941;-92
2022/11/08 07:40:06;;;;;;;;;;;;;;;;;;4997150;28;19910;-92
2022/11/08 07:42:32;;;;;;;;;;;;;;;;;;4965970;28;20001;-91
2022/11/08 07:45:03;;;;;;;;;;;;;;;;;;4966312;28;19965;-91
2022/11/08 07:47:29;;;;;;;;;;;;;;;;;;4981306;28;19918;-92
2022/11/08 07:49:54;;;;;;;;;;;;;;;;;;4980216;28;19910;-93
2022/11/08 07:52:19;;;;;;;;;;;;;;;;;;4963387;28;20024;-91
2022/11/08 07:54:45;;;;;;;;;;;;;;;;;;4964394;28;19928;-92
2022/11/08 07:57:11;;;;;;;;;;;;;;;;;;4979977;28;19925;-92
2022/11/08 07:59:36;;;;;;;;;;;;;;;;;;4963803;28;19956;-92
2022/11/08 08:02:01;;;;;;;;;;;;;;;;;;4980573;28;19914;-92
2022/11/08 08:04:27;;;;;;;;;;;;;;;;;;4964981;28;19979;-92
2022/11/08 08:06:53;;;;;;;;;;;;;;;;;;4995971;28;19922;-93
2022/11/08 08:09:18;;;;;;;;;;;;;;;;;;4964347;28;19920;-92
2022/11/08 08:11:44;;;;;;;;;;;;;;;;;;4964335;28;19914;-92
2022/11/08 08:14:10;;;;;;;;;;;;;;;;;;4964030;28;19910;-92
2022/11/08 08:16:36;;;;;;;;;;;;;;;;;;4963593;28;20021;-92
2022/11/08 08:19:01;;;;;;;;;;;;;;;;;;4965076;28;19913;-92
2022/11/08 08:21:27;;;;;;;;;;;;;;;;;;4963368;28;19924;-90
2022/11/08 08:23:53;;;;;;;;;;;;;;;;;;4963588;28;19917;-90
2022/11/08 08:26:18;;;;;;;;;;;;;;;;;;4962361;28;19972;-90
2022/11/08 08:28:43;;;;;;;;;;;;;;;;;;4979113;28;19914;-90
2022/11/08 08:31:10;;;;;;;;;;;;;;;;;;4979870;28;19914;-90
2022/11/08 08:33:36;;;;;;;;;;;;;;;;;;4963757;28;19993;-92
2022/11/08 08:36:02;;;;;;;;;;;;;;;;;;4964699;28;19917;-91
2022/11/08 08:38:27;;;;;;;;;;;;;;;;;;4968159;28;19964;-89
2022/11/08 08:40:53;;;;;;;;;;;;;;;;;;4975909;28;19940;-93
2022/11/08 08:43:18;;;;;;;;;;;;;;;;;;4975045;28;19937;-93
2022/11/08 08:45:44;;;;;;;;;;;;;;;;;;4975090;28;19978;-92
2022/11/08 08:48:09;;;;;;;;;;;;;;;;;;4974315;28;19920;-92
2022/11/08 08:50:35;;;;;;;;;;;;;;;;;;4972047;28;19917;-92
2022/11/08 08:53:01;;;;;;;;;;;;;;;;;;4970966;28;19913;-92
2022/11/08 08:55:26;;;;;;;;;;;;;;;;;;4968452;28;19914;-92
2022/11/08 08:57:52;;;;;;;;;;;;;;;;;;4967139;28;19948;-93
2022/11/08 09:00:17;;;;;;;;;;;;;;;;;;4971098;28;19926;-93
2022/11/08 09:02:43;;;;;;;;;;;;;;;;;;5002723;28;19920;-92
2022/11/08 09:05:09;;;;;;;;;;;;;;;;;;4971368;28;19929;-92
2022/11/08 09:07:35;;;;;;;;;;;;;;;;;;4980508;28;19917;-91
2022/11/08 09:10:00;;;;;;;;;;;;;;;;;;4963376;28;19914;-92
2022/11/08 09:12:25;;;;;;;;;;;;;;;;;;4962748;28;19946;-91
2022/11/08 09:14:51;;;;;;;;;;;;;;;;;;4962017;28;20288;-93
2022/11/08 09:17:16;;;;;;;;;;;;;;;;;;4962788;28;19914;-90
2022/11/08 09:19:42;;;;;;;;;;;;;;;;;;4963215;28;19922;-90
2022/11/08 09:22:07;;;;;;;;;;;;;;;;;;4962684;28;19913;-92
2022/11/08 09:24:41;;;;;;;;;;;;;;;;;;5075813;28;19944;-90
2022/11/08 09:27:06;;;;;;;;;;;;;;;;;;5068581;28;20419;-90
2022/11/08 09:29:32;;;;;;;;;;;;;;;;;;5047356;28;19948;-89
2022/11/08 09:31:58;;;;;;;;;;;;;;;;;;5076902;28;19920;-91
2022/11/08 09:34:23;;;;;;;;;;;;;;;;;;5070090;28;19923;-91
2022/11/08 09:36:49;;;;;;;;;;;;;;;;;;5075744;28;19912;-91
2022/11/08 09:39:15;;;;;;;;;;;;;;;;;;5066617;28;19936;-92
2022/11/08 09:41:41;;;;;;;;;;;;;;;;;;5085026;28;19909;-90
2022/11/08 09:44:07;;;;;;;;;;;;;;;;;;5086439;22;19966;-88
2022/11/08 09:46:33;;;;;;;;;;;;;;;;;;5050849;28;19983;-85
2022/11/08 09:48:58;;;;;;;;;;;;;;;;;;5067948;28;20276;-80
2022/11/08 09:51:24;;;;;;;;;;;;;;;;;;5045552;28;20265;-81
2022/11/08 09:53:49;;;;;;;;;;;;;;;;;;5050512;28;19955;-82
2022/11/08 09:56:15;;;;;;;;;;;;;;;;;;5051017;28;19919;-80
2022/11/08 09:58:43;;;;;;;;;;;;;;;;;;5052390;28;20424;-80
2022/11/08 10:01:09;;;;;;;;;;;;;;;;;;5068490;28;19913;-83
2022/11/08 10:03:34;;;;;;;;;;;;;;;;;;5068823;28;20296;-85
2022/11/08 10:06:00;;;;;;;;;;;;;;;;;;5042747;28;20314;-85
2022/11/08 10:08:25;;;;;;;;;;;;;;;;;;5014720;28;20528;-87
2022/11/08 10:10:54;;;;;;;;;;;;;;;;;;5022756;28;20463;-88
2022/11/08 10:13:19;;;;;;;;;;;;;;;;;;5033235;28;20376;-88
2022/11/08 10:15:48;;;;;;;;;;;;;;;;;;5048887;28;19921;-86
2022/11/08 10:18:13;;;;;;;;;;;;;;;;;;5047925;28;20407;-87
2022/11/08 10:20:39;;;;;;;;;;;;;;;;;;5015623;28;19913;-88
2022/11/08 10:23:04;;;;;;;;;;;;;;;;;;5015081;28;19913;-87
2022/11/08 10:25:30;;;;;;;;;;;;;;;;;;5032942;28;19913;-88
2022/11/08 10:27:55;;;;;;;;;;;;;;;;;;5015710;28;19917;-88
2022/11/08 10:30:21;;;;;;;;;;;;;;;;;;5015957;28;20012;-88
2022/11/08 10:32:46;;;;;;;;;;;;;;;;;;5015534;28;19916;-87
2022/11/08 10:35:12;;;;;;;;;;;;;;;;;;5022723;28;20292;-86
2022/11/08 10:37:38;;;;;;;;;;;;;;;;;;5002068;28;19910;-89
2022/11/08 10:40:03;;;;;;;;;;;;;;;;;;5002099;28;19913;-89
2022/11/08 10:42:34;;;;;;;;;;;;;;;;;;5034996;28;19944;-90
2022/11/08 10:45:00;;;;;;;;;;;;;;;;;;5004385;28;19925;-89
2022/11/08 10:47:26;;;;;;;;;;;;;;;;;;5018969;28;19917;-89
2022/11/08 10:49:53;;;;;;;;;;;;;;;;;;5002623;28;19920;-87
2022/11/08 10:52:18;;;;;;;;;;;;;;;;;;5020000;28;19913;-90
2022/11/08 10:54:44;;;;;;;;;;;;;;;;;;5019950;28;19928;-90
2022/11/08 10:57:12;;;;;;;;;;;;;;;;;;5005243;28;19923;-89
2022/11/08 10:59:41;;;;;;;;;;;;;;;;;;5004884;28;19917;-89
2022/11/08 11:02:07;;;;;;;;;;;;;;;;;;5005604;28;19992;-87
2022/11/08 11:04:33;;;;;;;;;;;;;;;;;;5005852;28;19917;-89
2022/11/08 11:06:59;;;;;;;;;;;;;;;;;;5022362;28;19972;-88
2022/11/08 11:09:25;;;;;;;;;;;;;;;;;;5038277;28;19914;-89
2022/11/08 11:11:50;;;;;;;;;;;;;;;;;;5005637;28;19913;-88
2022/11/08 11:14:16;;;;;;;;;;;;;;;;;;5005769;28;19939;-89
2022/11/08 11:16:42;;;;;;;;;;;;;;;;;;5007939;28;19913;-88
2022/11/08 11:19:08;;;;;;;;;;;;;;;;;;5047963;28;19948;-90
2022/11/08 11:21:33;;;;;;;;;;;;;;;;;;5032242;28;19924;-89
2022/11/08 11:23:59;;;;;;;;;;;;;;;;;;5019483;28;19939;-88
2022/11/08 11:26:28;;;;;;;;;;;;;;;;;;5054348;28;19913;-90
2022/11/08 11:28:57;;;;;;;;;;;;;;;;;;5053891;28;19913;-87
2022/11/08 11:31:25;;;;;;;;;;;;;;;;;;5020793;28;19913;-89
2022/11/08 11:33:51;;;;;;;;;;;;;;;;;;5016471;28;20001;-90
2022/11/08 11:36:17;;;;;;;;;;;;;;;;;;5016730;28;19901;-90
2022/11/08 11:38:44;;;;;;;;;;;;;;;;;;5034575;28;19984;-90
2022/11/08 11:41:13;;;;;;;;;;;;;;;;;;5015767;28;19917;-91
2022/11/08 11:43:41;;;;;;;;;;;;;;;;;;5035146;28;19921;-90
2022/11/08 11:49:05;;;;;;;;;;;;;;;;;;5054111;28;19917;-93
2022/11/08 11:51:34;;;;;;;;;;;;;;;;;;5050020;28;19913;-91
2022/11/08 11:54:02;;;;;;;;;;;;;;;;;;5015467;28;19956;-91
2022/11/08 11:56:40;;;;;;;;;;;;;;;;;;5020968;28;19980;-92
2022/11/08 11:59:50;;;;;;;;;;;;;;;;;;5047853;28;19913;-93
2022/11/08 12:02:31;;;;;;;;;;;;;;;;;;5088888;23;19928;-91
2022/11/08 12:13:57;;;;;;;;;;;;;;;;;;5317237;23;19993;-93
2022/11/08 12:16:23;;;;;;;;;;;;;;;;;;4972490;28;19981;-91
2022/11/08 12:18:49;;;;;;;;;;;;;;;;;;4959850;28;20273;-92
2022/11/08 12:21:18;;;;;;;;;;;;;;;;;;4959104;28;19969;-91
2022/11/08 12:23:50;;;;;;;;;;;;;;;;;;4967942;28;19926;-92
2022/11/08 12:26:25;;;;;;;;;;;;;;;;;;4997812;28;19921;-93
2022/11/08 12:31:29;;;;;;;;;;;;;;;;;;5254691;23;19933;-95
2022/11/08 12:34:24;;;;;;;;;;;;;;;;;;4980695;28;19914;-95
2022/11/08 12:37:16;;;;;;;;;;;;;;;;;;4994419;28;19918;-92
2022/11/08 12:39:45;;;;;;;;;;;;;;;;;;4987718;28;19924;-94
2022/11/08 12:42:14;;;;;;;;;;;;;;;;;;4951701;28;19937;-93
2022/11/08 12:44:43;;;;;;;;;;;;;;;;;;4968629;28;19928;-94
2022/11/08 12:47:15;;;;;;;;;;;;;;;;;;4966322;28;19913;-92
2022/11/08 12:49:54;;;;;;;;;;;;;;;;;;4971660;28;19914;-92
2022/11/08 12:52:20;;;;;;;;;;;;;;;;;;4961280;28;19914;-91
2022/11/08 12:54:45;;;;;;;;;;;;;;;;;;4961891;28;19952;-92
2022/11/08 12:57:26;;;;;;;;;;;;;;;;;;4948393;28;19972;-93
2022/11/08 12:59:57;;;;;;;;;;;;;;;;;;4973222;28;19964;-92
2022/11/08 13:02:29;;;;;;;;;;;;;;;;;;4965265;28;19918;-93
2022/11/08 13:04:55;;;;;;;;;;;;;;;;;;4962662;28;19914;-93
2022/11/08 13:07:21;;;;;;;;;;;;;;;;;;4962853;28;19910;-93
2022/11/08 13:09:47;;;;;;;;;;;;;;;;;;4962093;28;19913;-93
2022/11/08 13:12:18;;;;;;;;;;;;;;;;;;4963009;28;19914;-90
2022/11/08 13:14:44;;;;;;;;;;;;;;;;;;4947801;28;20004;-91
2022/11/08 13:17:17;;;;;;;;;;;;;;;;;;4948939;28;20369;-90
2022/11/08 13:19:43;;;;;;;;;;;;;;;;;;4945887;28;19914;-93
2022/11/08 13:22:09;;;;;;;;;;;;;;;;;;4946335;28;19913;-94
2022/11/08 13:24:35;;;;;;;;;;;;;;;;;;4945567;28;19967;-92
2022/11/08 13:27:01;;;;;;;;;;;;;;;;;;4947120;28;20012;-92
2022/11/08 13:29:28;;;;;;;;;;;;;;;;;;4979074;28;19914;-92
2022/11/08 13:31:53;;;;;;;;;;;;;;;;;;4965765;28;19918;-93
2022/11/08 13:34:19;;;;;;;;;;;;;;;;;;4945602;28;19914;-91
2022/11/08 13:36:56;;;;;;;;;;;;;;;;;;4946714;28;19914;-92
2022/11/08 13:42:31;;;;;;;;;;;;;;;;;;4979111;28;19918;-93
2022/11/08 13:45:06;;;;;;;;;;;;;;;;;;4947624;28;19921;-93
2022/11/08 13:47:32;;;;;;;;;;;;;;;;;;4961806;28;20468;-92
2022/11/08 13:50:00;;;;;;;;;;;;;;;;;;4961592;28;19986;-92
2022/11/08 13:52:26;;;;;;;;;;;;;;;;;;4944029;28;19918;-92
2022/11/08 13:54:58;;;;;;;;;;;;;;;;;;4960869;28;19925;-93
2022/11/08 13:57:31;;;;;;;;;;;;;;;;;;4960440;28;20358;-93
2022/11/08 13:59:56;;;;;;;;;;;;;;;;;;4945040;28;19925;-92
2022/11/08 14:02:24;;;;;;;;;;;;;;;;;;4960667;28;19960;-94
2022/11/08 14:04:50;;;;;;;;;;;;;;;;;;4945145;28;19952;-92
2022/11/08 14:07:16;;;;;;;;;;;;;;;;;;4960829;28;19918;-92
2022/11/08 14:09:46;;;;;;;;;;;;;;;;;;4946894;28;19948;-90
2022/11/08 14:12:12;;;;;;;;;;;;;;;;;;4982734;28;19914;-91
2022/11/08 14:14:38;;;;;;;;;;;;;;;;;;4969049;28;19964;-91
2022/11/08 14:17:07;;;;;;;;;;;;;;;;;;4953934;28;19914;-91
2022/11/08 14:19:33;;;;;;;;;;;;;;;;;;4952962;28;19997;-91
2022/11/08 14:21:58;;;;;;;;;;;;;;;;;;4952251;28;19946;-92
2022/11/08 14:24:24;;;;;;;;;;;;;;;;;;4949188;28;20012;-93
2022/11/08 14:26:59;;;;;;;;;;;;;;;;;;4951409;28;19913;-93
2022/11/08 14:29:25;;;;;;;;;;;;;;;;;;4966489;28;19913;-93
2022/11/08 14:31:51;;;;;;;;;;;;;;;;;;4967144;28;20282;-94
2022/11/08 14:34:16;;;;;;;;;;;;;;;;;;4983523;28;19921;-91
2022/11/08 14:36:47;;;;;;;;;;;;;;;;;;4983404;28;19980;-93
2022/11/08 14:39:15;;;;;;;;;;;;;;;;;;4950063;28;20408;-92
2022/11/08 14:41:41;;;;;;;;;;;;;;;;;;4950416;28;19914;-93
2022/11/08 14:44:09;;;;;;;;;;;;;;;;;;4950760;28;20296;-92
2022/11/08 14:46:40;;;;;;;;;;;;;;;;;;4950487;28;20382;-92
2022/11/08 14:49:06;;;;;;;;;;;;;;;;;;4966705;28;19918;-92
2022/11/08 14:51:38;;;;;;;;;;;;;;;;;;4953589;28;19914;-92
2022/11/08 14:54:06;;;;;;;;;;;;;;;;;;4957487;28;19921;-92
2022/11/08 14:56:31;;;;;;;;;;;;;;;;;;4958361;28;20008;-92
2022/11/08 14:58:57;;;;;;;;;;;;;;;;;;4954350;28;19964;-92
2022/11/08 15:01:22;;;;;;;;;;;;;;;;;;4978156;28;19957;-92
2022/11/08 15:03:48;;;;;;;;;;;;;;;;;;4961242;28;19914;-94
2022/11/08 15:06:14;;;;;;;;;;;;;;;;;;4956942;28;19914;-93
2022/11/08 15:08:42;;;;;;;;;;;;;;;;;;4960708;28;19921;-92
2022/11/08 15:11:07;;;;;;;;;;;;;;;;;;4954864;28;20289;-93
2022/11/08 15:13:35;;;;;;;;;;;;;;;;;;4984114;28;19921;-92
2022/11/08 15:16:03;;;;;;;;;;;;;;;;;;4968090;28;19913;-92
2022/11/08 15:18:29;;;;;;;;;;;;;;;;;;4950421;28;19914;-92
2022/11/08 15:20:55;;;;;;;;;;;;;;;;;;4949093;28;20049;-92
2022/11/08 15:23:24;;;;;;;;;;;;;;;;;;4951423;28;19913;-93
2022/11/08 15:25:52;;;;;;;;;;;;;;;;;;4966206;28;19914;-92
2022/11/08 15:28:27;;;;;;;;;;;;;;;;;;4951711;28;19914;-92
2022/11/08 15:30:56;;;;;;;;;;;;;;;;;;4949201;28;19918;-92
2022/11/08 15:33:22;;;;;;;;;;;;;;;;;;4962078;28;20361;-86
2022/11/08 15:35:47;;;;;;;;;;;;;;;;;;4946774;28;19945;-85
2022/11/08 15:38:13;;;;;;;;;;;;;;;;;;4963088;28;20007;-91
2022/11/08 15:40:38;;;;;;;;;;;;;;;;;;4961480;28;19968;-78
2022/11/08 15:43:04;;;;;;;;;;;;;;;;;;4995385;23;19926;-76
2022/11/08 15:45:31;;;;;;;;;;;;;;;;;;4960695;28;20016;-77
2022/11/08 15:47:56;;;;;;;;;;;;;;;;;;4976684;28;20325;-77
2022/11/08 15:50:22;;;;;;;;;;;;;;;;;;4976697;28;19914;-76
2022/11/08 15:52:47;;;;;;;;;;;;;;;;;;4960263;28;19914;-75
2022/11/08 15:55:13;;;;;;;;;;;;;;;;;;4993510;28;19914;-77
2022/11/08 15:57:38;;;;;;;;;;;;;;;;;;4975873;28;19921;-76
2022/11/08 16:00:04;;;;;;;;;;;;;;;;;;4960174;28;20373;-77
2022/11/08 16:02:37;;;;;;;;;;;;;;;;;;4976397;28;20404;-76
2022/11/08 16:05:03;;;;;;;;;;;;;;;;;;4976835;28;19925;-77
2022/11/08 16:07:28;;;;;;;;;;;;;;;;;;4978834;28;20040;-76
2022/11/08 16:09:53;;;;;;;;;;;;;;;;;;4978163;28;20382;-76
2022/11/08 16:12:19;;;;;;;;;;;;;;;;;;4993570;28;19918;-76
2022/11/08 16:14:44;;;;;;;;;;;;;;;;;;4976120;28;19920;-77
2022/11/08 16:17:09;;;;;;;;;;;;;;;;;;4993129;28;19920;-77
2022/11/08 16:19:35;;;;;;;;;;;;;;;;;;4975768;28;19936;-78
2022/11/08 16:22:06;;;;;;;;;;;;;;;;;;4975671;28;19917;-76
2022/11/08 16:24:31;;;;;;;;;;;;;;;;;;4992788;28;20423;-76
2022/11/08 16:26:57;;;;;;;;;;;;;;;;;;4993099;28;20024;-76
2022/11/08 16:29:22;;;;;;;;;;;;;;;;;;4975623;28;20392;-76
2022/11/08 16:31:48;;;;;;;;;;;;;;;;;;4992683;28;19921;-75
2022/11/08 16:34:13;;;;;;;;;;;;;;;;;;4992995;28;19913;-87
2022/11/08 16:36:38;;;;;;;;;;;;;;;;;;4962203;28;19914;-86
2022/11/08 16:39:04;;;;;;;;;;;;;;;;;;4961959;28;19964;-88
2022/11/08 16:41:29;;;;;;;;;;;;;;;;;;4942972;28;19940;-86
2022/11/08 16:43:59;;;;;;;;;;;;;;;;;;4958511;28;19917;-91
2022/11/08 16:46:24;;;;;;;;;;;;;;;;;;4931023;28;19914;-90
2022/11/08 16:48:49;;;;;;;;;;;;;;;;;;4955833;28;19914;-91
2022/11/08 16:51:15;;;;;;;;;;;;;;;;;;4954150;28;20343;-92
2022/11/08 16:53:41;;;;;;;;;;;;;;;;;;4947568;28;20182;-93
2022/11/08 16:56:06;;;;;;;;;;;;;;;;;;4959427;28;20053;-94
2022/11/08 16:58:31;;;;;;;;;;;;;;;;;;4954882;28;19913;-93
2022/11/08 17:00:57;;;;;;;;;;;;;;;;;;4964561;28;19964;-91
2022/11/08 17:03:23;;;;;;;;;;;;;;;;;;4980209;28;20445;-93
2022/11/08 17:05:48;;;;;;;;;;;;;;;;;;4932381;28;19917;-91
2022/11/08 17:08:14;;;;;;;;;;;;;;;;;;4928535;28;19914;-91
2022/11/08 17:10:40;;;;;;;;;;;;;;;;;;4952216;28;20242;-91
2022/11/08 17:13:05;;;;;;;;;;;;;;;;;;4962372;28;19945;-92
2022/11/08 17:15:31;;;;;;;;;;;;;;;;;;4987250;28;20341;-92
2022/11/08 17:17:56;;;;;;;;;;;;;;;;;;4962538;28;19916;-91